createdAt,value
2017-01-28T00:01:16.644Z,0
2017-01-28T00:02:39.150Z,0
2017-01-28T00:04:02.071Z,0
2017-01-28T00:05:24.469Z,0
2017-01-28T00:06:45.759Z,0
2017-01-28T00:08:08.237Z,0
2017-01-28T00:09:30.302Z,0
2017-01-28T00:10:52.626Z,0
2017-01-28T00:12:14.741Z,0
2017-01-28T00:13:37.302Z,0
2017-01-28T00:15:00.160Z,0
2017-01-28T00:16:23.001Z,0
2017-01-28T00:17:45.703Z,0
2017-01-28T00:19:08.147Z,0
2017-01-28T00:20:30.223Z,0
2017-01-28T00:21:52.138Z,0
2017-01-28T00:23:15.034Z,0
2017-01-28T00:24:37.682Z,0
2017-01-28T00:25:59.773Z,0
2017-01-28T00:27:22.961Z,0
2017-01-28T00:28:45.013Z,0
2017-01-28T00:30:07.548Z,0
2017-01-28T00:31:30.001Z,0
2017-01-28T00:32:52.706Z,0
2017-01-28T00:34:14.559Z,0
2017-01-28T00:35:37.031Z,0
2017-01-28T00:36:59.574Z,0
2017-01-28T00:38:22.742Z,0
2017-01-28T00:39:44.432Z,0
2017-01-28T00:41:06.902Z,0
2017-01-28T00:42:28.977Z,0
2017-01-28T00:43:51.567Z,0
2017-01-28T00:45:12.825Z,0
2017-01-28T00:46:34.894Z,0
2017-01-28T00:47:57.425Z,0
2017-01-28T00:49:20.555Z,0
2017-01-28T00:50:43.039Z,0
2017-01-28T00:52:04.800Z,0
2017-01-28T00:53:26.492Z,0
2017-01-28T00:54:49.590Z,0
2017-01-28T00:56:11.451Z,0
2017-01-28T00:57:33.606Z,0
2017-01-28T00:58:55.648Z,0
2017-01-28T01:00:17.236Z,0
2017-01-28T01:01:39.299Z,0
2017-01-28T01:03:01.386Z,0
2017-01-28T01:04:23.862Z,0
2017-01-28T01:05:46.217Z,0
2017-01-28T01:07:09.086Z,0
2017-01-28T01:08:31.167Z,0
2017-01-28T01:09:53.208Z,0
2017-01-28T01:11:16.065Z,0
2017-01-28T01:12:37.719Z,0
2017-01-28T01:13:59.367Z,0
2017-01-28T01:15:21.427Z,0
2017-01-28T01:16:44.113Z,0
2017-01-28T01:18:05.393Z,0
2017-01-28T01:19:27.482Z,0
2017-01-28T01:20:50.356Z,0
2017-01-28T01:22:12.319Z,0
2017-01-28T01:23:35.326Z,0
2017-01-28T01:24:58.197Z,0
2017-01-28T01:26:20.663Z,0
2017-01-28T01:27:42.573Z,0
2017-01-28T01:29:04.633Z,0
2017-01-28T01:30:26.692Z,0
2017-01-28T01:31:48.374Z,0
2017-01-28T01:33:10.683Z,0
2017-01-28T01:34:32.742Z,0
2017-01-28T01:35:54.798Z,0
2017-01-28T01:37:17.272Z,0
2017-01-28T01:38:40.532Z,0
2017-01-28T01:40:02.202Z,0
2017-01-28T01:41:23.861Z,0
2017-01-28T01:42:45.531Z,0
2017-01-28T01:44:07.894Z,0
2017-01-28T01:45:30.368Z,0
2017-01-28T01:46:52.498Z,0
2017-01-28T01:48:14.570Z,0
2017-01-28T01:49:37.388Z,0
2017-01-28T01:50:59.981Z,0
2017-01-28T01:52:22.058Z,0
2017-01-28T01:53:43.723Z,0
2017-01-28T01:55:06.837Z,0
2017-01-28T01:56:28.514Z,0
2017-01-28T01:57:50.170Z,0
2017-01-28T01:59:13.023Z,0
2017-01-28T02:00:34.969Z,0
2017-01-28T02:01:57.074Z,0
2017-01-28T02:03:19.538Z,0
2017-01-28T02:04:42.442Z,0
2017-01-28T02:06:05.386Z,0
2017-01-28T02:07:27.448Z,0
2017-01-28T02:08:49.123Z,0
2017-01-28T02:10:11.585Z,0
2017-01-28T02:11:33.556Z,0
2017-01-28T02:12:54.828Z,0
2017-01-28T02:14:16.901Z,0
2017-01-28T02:15:38.943Z,0
2017-01-28T02:17:01.677Z,0
2017-01-28T02:18:24.121Z,0
2017-01-28T02:19:46.597Z,0
2017-01-28T02:21:07.847Z,0
2017-01-28T02:22:30.586Z,0
2017-01-28T02:23:52.853Z,0
2017-01-28T02:25:15.455Z,0
2017-01-28T02:26:37.680Z,0
2017-01-28T02:27:59.667Z,0
2017-01-28T02:29:21.323Z,0
2017-01-28T02:30:43.382Z,0
2017-01-28T02:32:05.860Z,0
2017-01-28T02:33:28.299Z,0
2017-01-28T02:34:49.992Z,0
2017-01-28T02:36:12.452Z,0
2017-01-28T02:37:35.007Z,0
2017-01-28T02:38:57.829Z,0
2017-01-28T02:40:19.916Z,0
2017-01-28T02:41:42.350Z,0
2017-01-28T02:43:04.421Z,0
2017-01-28T02:44:27.110Z,0
2017-01-28T02:45:49.596Z,0
2017-01-28T02:47:12.122Z,0
2017-01-28T02:48:34.985Z,0
2017-01-28T02:49:57.680Z,0
2017-01-28T02:51:20.146Z,0
2017-01-28T02:52:42.604Z,0
2017-01-28T02:54:04.747Z,0
2017-01-28T02:55:27.617Z,0
2017-01-28T02:56:50.078Z,0
2017-01-28T02:58:12.125Z,0
2017-01-28T02:59:33.770Z,0
2017-01-28T03:00:56.116Z,0
2017-01-28T03:02:18.580Z,0
2017-01-28T03:03:41.151Z,0
2017-01-28T03:05:02.790Z,0
2017-01-28T03:06:25.630Z,0
2017-01-28T03:07:48.091Z,0
2017-01-28T03:09:10.163Z,0
2017-01-28T03:10:32.232Z,0
2017-01-28T03:11:54.954Z,0
2017-01-28T03:13:16.642Z,0
2017-01-28T03:14:39.133Z,0
2017-01-28T03:16:01.210Z,0
2017-01-28T03:17:22.334Z,0
2017-01-28T03:18:43.611Z,0
2017-01-28T03:20:05.312Z,0
2017-01-28T03:21:27.774Z,0
2017-01-28T03:22:50.082Z,0
2017-01-28T03:24:12.979Z,0
2017-01-28T03:25:35.491Z,0
2017-01-28T03:26:57.645Z,0
2017-01-28T03:28:20.438Z,0
2017-01-28T03:29:42.092Z,0
2017-01-28T03:31:04.533Z,0
2017-01-28T03:32:26.582Z,0
2017-01-28T03:33:48.160Z,0
2017-01-28T03:35:10.246Z,0
2017-01-28T03:36:32.312Z,0
2017-01-28T03:37:54.108Z,0
2017-01-28T03:39:16.826Z,0
2017-01-28T03:40:39.298Z,0
2017-01-28T03:42:01.788Z,0
2017-01-28T03:43:23.437Z,0
2017-01-28T03:44:46.188Z,0
2017-01-28T03:46:08.292Z,0
2017-01-28T03:47:29.954Z,0
2017-01-28T03:48:52.123Z,0
2017-01-28T03:50:14.079Z,0
2017-01-28T03:51:35.343Z,0
2017-01-28T03:52:57.812Z,0
2017-01-28T03:54:19.961Z,0
2017-01-28T03:55:41.083Z,0
2017-01-28T03:57:02.073Z,0
2017-01-28T03:58:24.552Z,0
2017-01-28T03:59:47.018Z,0
2017-01-28T04:01:09.360Z,0
2017-01-28T04:02:31.442Z,0
2017-01-28T04:03:53.902Z,0
2017-01-28T04:05:15.955Z,0
2017-01-28T04:06:38.249Z,0
2017-01-28T04:08:00.730Z,0
2017-01-28T04:09:22.790Z,0
2017-01-28T04:10:45.247Z,0
2017-01-28T04:12:07.653Z,0
2017-01-28T04:13:30.148Z,0
2017-01-28T04:14:52.200Z,0
2017-01-28T04:16:15.062Z,0
2017-01-28T04:17:38.194Z,0
2017-01-28T04:18:59.971Z,0
2017-01-28T04:20:21.286Z,0
2017-01-28T04:21:43.745Z,0
2017-01-28T04:23:06.556Z,0
2017-01-28T04:24:27.818Z,0
2017-01-28T04:25:49.468Z,0
2017-01-28T04:27:11.933Z,0
2017-01-28T04:28:33.959Z,0
2017-01-28T04:29:56.085Z,0
2017-01-28T04:31:18.155Z,0
2017-01-28T04:32:40.609Z,0
2017-01-28T04:34:03.115Z,0
2017-01-28T04:35:25.693Z,0
2017-01-28T04:36:47.339Z,0
2017-01-28T04:38:08.613Z,0
2017-01-28T04:39:31.439Z,0
2017-01-28T04:40:53.557Z,0
2017-01-28T04:42:15.236Z,0
2017-01-28T04:43:37.292Z,0
2017-01-28T04:44:58.813Z,0
2017-01-28T04:46:20.873Z,0
2017-01-28T04:47:43.463Z,0
2017-01-28T04:49:05.921Z,0
2017-01-28T04:50:28.893Z,0
2017-01-28T04:51:50.967Z,0
2017-01-28T04:53:13.182Z,0
2017-01-28T04:54:36.033Z,0
2017-01-28T04:55:58.413Z,0
2017-01-28T04:57:20.088Z,0
2017-01-28T04:58:42.138Z,0
2017-01-28T05:00:03.841Z,0
2017-01-28T05:01:26.034Z,0
2017-01-28T05:02:48.575Z,0
2017-01-28T05:04:10.759Z,0
2017-01-28T05:05:32.421Z,0
2017-01-28T05:06:55.153Z,0
2017-01-28T05:08:17.193Z,0
2017-01-28T05:09:39.266Z,0
2017-01-28T05:11:00.553Z,0
2017-01-28T05:12:22.954Z,0
2017-01-28T05:13:45.928Z,0
2017-01-28T05:15:08.795Z,0
2017-01-28T05:16:31.373Z,0
2017-01-28T05:17:52.949Z,0
2017-01-28T05:19:15.430Z,0
2017-01-28T05:20:37.502Z,0
2017-01-28T05:21:59.604Z,0
2017-01-28T05:23:21.918Z,0
2017-01-28T05:24:43.636Z,0
2017-01-28T05:26:05.723Z,0
2017-01-28T05:27:28.294Z,0
2017-01-28T05:28:50.636Z,0
2017-01-28T05:30:12.699Z,0
2017-01-28T05:31:35.558Z,0
2017-01-28T05:32:57.420Z,0
2017-01-28T05:34:19.718Z,0
2017-01-28T05:35:42.564Z,0
2017-01-28T05:37:05.454Z,0
2017-01-28T05:38:28.335Z,0
2017-01-28T05:39:51.052Z,0
2017-01-28T05:41:12.710Z,0
2017-01-28T05:42:34.435Z,0
2017-01-28T05:43:56.493Z,0
2017-01-28T05:45:18.056Z,0
2017-01-28T05:46:40.193Z,0
2017-01-28T05:48:02.646Z,0
2017-01-28T05:49:24.294Z,0
2017-01-28T05:50:47.386Z,0
2017-01-28T05:52:09.481Z,0
2017-01-28T05:53:31.131Z,0
2017-01-28T05:54:53.187Z,0
2017-01-28T05:56:16.241Z,0
2017-01-28T05:57:38.284Z,0
2017-01-28T05:59:00.364Z,0
2017-01-28T06:00:21.633Z,0
2017-01-28T06:01:43.627Z,0
2017-01-28T06:03:06.487Z,0
2017-01-28T06:04:29.403Z,0
2017-01-28T06:05:51.472Z,0
2017-01-28T06:07:13.502Z,0
2017-01-28T06:08:35.334Z,0
2017-01-28T06:09:58.044Z,0
2017-01-28T06:11:20.132Z,0
2017-01-28T06:12:42.144Z,0
2017-01-28T06:14:04.599Z,0
2017-01-28T06:15:26.665Z,0
2017-01-28T06:16:48.318Z,0
2017-01-28T06:18:11.453Z,0
2017-01-28T06:19:33.530Z,0
2017-01-28T06:20:55.595Z,0
2017-01-28T06:22:18.190Z,0
2017-01-28T06:23:40.968Z,0
2017-01-28T06:25:03.033Z,0
2017-01-28T06:26:25.515Z,0
2017-01-28T06:27:47.618Z,0
2017-01-28T06:29:10.387Z,0
2017-01-28T06:30:32.835Z,0
2017-01-28T06:31:54.956Z,0
2017-01-28T06:33:16.622Z,4
2017-01-28T06:34:38.922Z,0
2017-01-28T06:36:01.420Z,0
2017-01-28T06:37:23.120Z,4
2017-01-28T06:38:45.166Z,4
2017-01-28T06:40:07.076Z,4
2017-01-28T06:41:28.541Z,4
2017-01-28T06:42:50.988Z,8
2017-01-28T06:44:13.563Z,8
2017-01-28T06:45:35.965Z,8
2017-01-28T06:46:57.241Z,12
2017-01-28T06:48:19.711Z,16
2017-01-28T06:49:42.165Z,16
2017-01-28T06:51:04.485Z,20
2017-01-28T06:52:27.348Z,32
2017-01-28T06:53:49.847Z,36
2017-01-28T06:55:12.345Z,40
2017-01-28T06:56:35.440Z,52
2017-01-28T06:57:57.510Z,64
2017-01-28T06:59:19.184Z,76
2017-01-28T07:00:41.264Z,92
2017-01-28T07:02:03.341Z,108
2017-01-28T07:03:25.940Z,132
2017-01-28T07:04:48.413Z,152
2017-01-28T07:06:10.479Z,176
2017-01-28T07:07:32.756Z,208
2017-01-28T07:08:54.435Z,240
2017-01-28T07:10:16.491Z,280
2017-01-28T07:11:38.143Z,324
2017-01-28T07:13:00.051Z,372
2017-01-28T07:14:22.122Z,424
2017-01-28T07:15:44.578Z,472
2017-01-28T07:17:06.661Z,516
2017-01-28T07:18:28.585Z,560
2017-01-28T07:19:51.447Z,600
2017-01-28T07:21:13.912Z,632
2017-01-28T07:22:36.026Z,676
2017-01-28T07:23:59.163Z,728
2017-01-28T07:25:21.561Z,788
2017-01-28T07:26:43.234Z,848
2017-01-28T07:28:06.198Z,904
2017-01-28T07:29:28.170Z,964
2017-01-28T07:30:49.812Z,1028
2017-01-28T07:32:11.878Z,1112
2017-01-28T07:33:33.570Z,1192
2017-01-28T07:34:56.382Z,1276
2017-01-28T07:36:18.841Z,1364
2017-01-28T07:37:41.409Z,1460
2017-01-28T07:39:03.872Z,1548
2017-01-28T07:40:25.794Z,1632
2017-01-28T07:41:47.554Z,1728
2017-01-28T07:43:09.220Z,1800
2017-01-28T07:44:31.310Z,1860
2017-01-28T07:45:53.302Z,1916
2017-01-28T07:47:15.772Z,1996
2017-01-28T07:48:37.820Z,2092
2017-01-28T07:50:00.414Z,2200
2017-01-28T07:51:23.134Z,2336
2017-01-28T07:52:46.112Z,2468
2017-01-28T07:54:07.773Z,2576
2017-01-28T07:55:29.514Z,2652
2017-01-28T07:56:51.836Z,2740
2017-01-28T07:58:13.537Z,2844
2017-01-28T07:59:35.211Z,2948
2017-01-28T08:00:56.875Z,3056
2017-01-28T08:02:19.206Z,3136
2017-01-28T08:03:40.898Z,3160
2017-01-28T08:05:03.380Z,3160
2017-01-28T08:06:25.644Z,3188
2017-01-28T08:07:48.469Z,3228
2017-01-28T08:09:10.542Z,3228
2017-01-28T08:10:32.992Z,3264
2017-01-28T08:11:55.448Z,3340
2017-01-28T08:13:17.357Z,3456
2017-01-28T08:14:39.026Z,3556
2017-01-28T08:16:01.103Z,3668
2017-01-28T08:17:22.816Z,3804
2017-01-28T08:18:45.201Z,3944
2017-01-28T08:20:07.659Z,4100
2017-01-28T08:21:29.764Z,4236
2017-01-28T08:22:52.641Z,4356
2017-01-28T08:24:15.004Z,4496
2017-01-28T08:25:37.167Z,4760
2017-01-28T08:26:59.702Z,5024
2017-01-28T08:28:21.800Z,5064
2017-01-28T08:29:43.711Z,4924
2017-01-28T08:31:05.812Z,4728
2017-01-28T08:32:28.286Z,4556
2017-01-28T08:33:50.761Z,4436
2017-01-28T08:35:13.137Z,4336
2017-01-28T08:36:35.273Z,4292
2017-01-28T08:37:56.949Z,4312
2017-01-28T08:39:19.007Z,4344
2017-01-28T08:40:41.334Z,4432
2017-01-28T08:42:02.291Z,4548
2017-01-28T08:43:25.157Z,4636
2017-01-28T08:44:47.227Z,4632
2017-01-28T08:46:09.833Z,4540
2017-01-28T08:47:31.947Z,4528
2017-01-28T08:48:54.944Z,4576
2017-01-28T08:50:16.654Z,4588
2017-01-28T08:51:39.759Z,4620
2017-01-28T08:53:02.616Z,4680
2017-01-28T08:54:24.747Z,4744
2017-01-28T08:55:47.608Z,4832
2017-01-28T08:57:10.512Z,4944
2017-01-28T08:58:33.375Z,5056
2017-01-28T08:59:55.438Z,5180
2017-01-28T09:01:16.757Z,5296
2017-01-28T09:02:38.674Z,5388
2017-01-28T09:04:00.351Z,5512
2017-01-28T09:05:22.473Z,5620
2017-01-28T09:06:44.586Z,5692
2017-01-28T09:08:07.134Z,5632
2017-01-28T09:09:28.788Z,5464
2017-01-28T09:10:51.283Z,5264
2017-01-28T09:12:13.774Z,5092
2017-01-28T09:13:36.184Z,4912
2017-01-28T09:14:58.251Z,4832
2017-01-28T09:16:20.735Z,4792
2017-01-28T09:17:43.336Z,4768
2017-01-28T09:19:06.468Z,4796
2017-01-28T09:20:28.163Z,4812
2017-01-28T09:22:22.072Z,4740
2017-01-28T09:23:43.757Z,4592
2017-01-28T09:25:06.624Z,4504
2017-01-28T09:26:28.744Z,4468
2017-01-28T09:27:50.433Z,4432
2017-01-28T09:29:12.581Z,4424
2017-01-28T09:30:35.359Z,4460
2017-01-28T09:31:57.031Z,4472
2017-01-28T09:33:19.210Z,4504
2017-01-28T09:34:41.836Z,4532
2017-01-28T09:36:04.662Z,4500
2017-01-28T09:37:26.335Z,4444
2017-01-28T09:38:48.828Z,4396
2017-01-28T09:40:10.903Z,4344
2017-01-28T09:41:34.112Z,4272
2017-01-28T09:42:56.724Z,4268
2017-01-28T09:44:19.583Z,4324
2017-01-28T09:45:41.797Z,4380
2017-01-28T09:47:04.425Z,4524
2017-01-28T09:48:26.911Z,4600
2017-01-28T09:49:49.567Z,4652
2017-01-28T09:51:11.713Z,4716
2017-01-28T09:52:34.419Z,4768
2017-01-28T09:53:56.880Z,4812
2017-01-28T09:55:18.941Z,4780
2017-01-28T09:56:41.492Z,4840
2017-01-28T09:58:04.229Z,4872
2017-01-28T09:59:26.704Z,4892
2017-01-28T10:00:48.778Z,4892
2017-01-28T10:02:10.893Z,4944
2017-01-28T10:03:32.010Z,5028
2017-01-28T10:04:54.492Z,4992
2017-01-28T10:06:16.994Z,4828
2017-01-28T10:07:39.058Z,4704
2017-01-28T10:09:00.990Z,4632
2017-01-28T10:10:22.695Z,4644
2017-01-28T10:11:45.741Z,4628
2017-01-28T10:13:07.802Z,4648
2017-01-28T10:14:30.134Z,4648
2017-01-28T10:15:52.595Z,4628
2017-01-28T10:17:14.682Z,4624
2017-01-28T10:18:36.881Z,4592
2017-01-28T10:19:59.649Z,4572
2017-01-28T10:21:21.719Z,4616
2017-01-28T10:22:44.210Z,4656
2017-01-28T10:24:06.306Z,4640
2017-01-28T10:25:29.075Z,4624
2017-01-28T10:26:51.183Z,4612
2017-01-28T10:28:13.646Z,4640
2017-01-28T10:29:36.144Z,4676
2017-01-28T10:30:59.004Z,4696
2017-01-28T10:32:21.112Z,4752
2017-01-28T10:33:43.669Z,4720
2017-01-28T10:35:05.735Z,4720
2017-01-28T10:36:28.590Z,4692
2017-01-28T10:37:51.080Z,4680
2017-01-28T10:39:13.941Z,4640
2017-01-28T10:40:35.619Z,4572
2017-01-28T10:41:57.138Z,4588
2017-01-28T10:43:19.662Z,4656
2017-01-28T10:44:42.531Z,4788
2017-01-28T10:46:05.085Z,4828
2017-01-28T10:47:27.090Z,4800
2017-01-28T10:48:49.210Z,4684
2017-01-28T10:50:11.680Z,4764
2017-01-28T10:51:33.827Z,4888
2017-01-28T10:52:55.777Z,4996
2017-01-28T10:54:17.152Z,5156
2017-01-28T10:55:40.112Z,5548
2017-01-28T10:57:02.611Z,5996
2017-01-28T10:58:25.382Z,6188
2017-01-28T10:59:47.914Z,6204
2017-01-28T11:01:10.152Z,6024
2017-01-28T11:02:32.227Z,5792
2017-01-28T11:03:54.546Z,5644
2017-01-28T11:05:16.645Z,5572
2017-01-28T11:06:38.742Z,5592
2017-01-28T11:08:01.610Z,5620
2017-01-28T11:09:24.411Z,5596
2017-01-28T11:10:47.529Z,5584
2017-01-28T11:12:09.621Z,5584
2017-01-28T11:13:31.721Z,5552
2017-01-28T11:14:54.846Z,5472
2017-01-28T11:16:17.307Z,5420
2017-01-28T11:17:40.187Z,5316
2017-01-28T11:19:02.684Z,5244
2017-01-28T11:20:24.660Z,5164
2017-01-28T11:21:47.140Z,5068
2017-01-28T11:23:09.300Z,4984
2017-01-28T11:24:31.411Z,4932
2017-01-28T11:25:53.865Z,4940
2017-01-28T11:27:16.773Z,4944
2017-01-28T11:28:39.855Z,4940
2017-01-28T11:30:02.464Z,4936
2017-01-28T11:31:25.256Z,4968
2017-01-28T11:32:48.110Z,4980
2017-01-28T11:34:09.860Z,4956
2017-01-28T11:35:31.943Z,4992
2017-01-28T11:36:53.583Z,5004
2017-01-28T11:38:15.678Z,4952
2017-01-28T11:39:38.147Z,4984
2017-01-28T11:41:00.726Z,4984
2017-01-28T11:42:22.352Z,4960
2017-01-28T11:43:44.534Z,4936
2017-01-28T11:45:07.050Z,4960
2017-01-28T11:46:29.958Z,4972
2017-01-28T11:47:52.433Z,5004
2017-01-28T11:49:14.488Z,5020
2017-01-28T11:50:37.018Z,5016
2017-01-28T11:51:58.697Z,5016
2017-01-28T11:53:21.421Z,4960
2017-01-28T11:54:44.559Z,5032
2017-01-28T11:56:07.037Z,5068
2017-01-28T11:57:29.940Z,5068
2017-01-28T11:58:52.276Z,5040
2017-01-28T12:00:15.149Z,5012
2017-01-28T12:01:37.207Z,4976
2017-01-28T12:02:58.913Z,4928
2017-01-28T12:04:21.294Z,4892
2017-01-28T12:05:43.786Z,4828
2017-01-28T12:07:06.325Z,4808
2017-01-28T12:08:28.897Z,4796
2017-01-28T12:09:52.014Z,4800
2017-01-28T12:11:14.495Z,4808
2017-01-28T12:12:37.001Z,4796
2017-01-28T12:13:58.739Z,4812
2017-01-28T12:15:21.543Z,4848
2017-01-28T12:16:44.025Z,4864
2017-01-28T12:18:06.111Z,4860
2017-01-28T12:19:28.995Z,4868
2017-01-28T12:20:50.931Z,4892
2017-01-28T12:22:12.584Z,4872
2017-01-28T12:23:35.440Z,4868
2017-01-28T12:24:57.130Z,4900
2017-01-28T12:26:19.061Z,4916
2017-01-28T12:27:41.544Z,4888
2017-01-28T12:29:04.060Z,4848
2017-01-28T12:30:26.545Z,4812
2017-01-28T12:31:49.424Z,4796
2017-01-28T12:33:11.518Z,4776
2017-01-28T12:34:34.385Z,4736
2017-01-28T12:35:57.255Z,4728
2017-01-28T12:37:19.601Z,4720
2017-01-28T12:38:41.285Z,4684
2017-01-28T12:40:04.166Z,4676
2017-01-28T12:41:26.642Z,4676
2017-01-28T12:42:48.180Z,4656
2017-01-28T12:44:10.732Z,4648
2017-01-28T12:45:33.203Z,4612
2017-01-28T12:46:56.226Z,4588
2017-01-28T12:48:19.413Z,4568
2017-01-28T12:49:41.705Z,4540
2017-01-28T12:51:04.179Z,4480
2017-01-28T12:52:26.385Z,4468
2017-01-28T12:53:48.738Z,4444
2017-01-28T12:55:11.240Z,4468
2017-01-28T12:56:33.317Z,4448
2017-01-28T12:57:55.373Z,4436
2017-01-28T12:59:18.156Z,4416
2017-01-28T13:00:40.261Z,4396
2017-01-28T13:02:02.712Z,4348
2017-01-28T13:03:24.923Z,4324
2017-01-28T13:04:47.352Z,4356
2017-01-28T13:06:09.976Z,4364
2017-01-28T13:07:32.892Z,4376
2017-01-28T13:08:55.358Z,4368
2017-01-28T13:10:18.158Z,4356
2017-01-28T13:11:40.671Z,4324
2017-01-28T13:13:03.453Z,4268
2017-01-28T13:14:26.101Z,4280
2017-01-28T13:15:49.226Z,4260
2017-01-28T13:17:12.182Z,4184
2017-01-28T13:18:34.628Z,4196
2017-01-28T13:19:57.181Z,4152
2017-01-28T13:21:20.357Z,4116
2017-01-28T13:22:43.212Z,4036
2017-01-28T13:24:05.448Z,3980
2017-01-28T13:25:28.346Z,4016
2017-01-28T13:26:50.894Z,4060
2017-01-28T13:28:12.964Z,4084
2017-01-28T13:29:35.878Z,4076
2017-01-28T13:30:58.360Z,4060
2017-01-28T13:32:20.754Z,4064
2017-01-28T13:33:42.432Z,4072
2017-01-28T13:35:04.495Z,4136
2017-01-28T13:36:26.950Z,4192
2017-01-28T13:37:49.289Z,4172
2017-01-28T13:39:11.789Z,4108
2017-01-28T13:40:34.760Z,4068
2017-01-28T13:41:56.438Z,4044
2017-01-28T13:43:19.487Z,4080
2017-01-28T13:44:41.221Z,4100
2017-01-28T13:46:03.867Z,4120
2017-01-28T13:47:26.752Z,4176
2017-01-28T13:48:49.550Z,4272
2017-01-28T13:50:12.058Z,4296
2017-01-28T13:51:34.125Z,4304
2017-01-28T13:52:56.223Z,4264
2017-01-28T13:54:18.607Z,4216
2017-01-28T13:55:41.477Z,4184
2017-01-28T13:57:04.219Z,4196
2017-01-28T13:58:26.706Z,4204
2017-01-28T13:59:49.057Z,4148
2017-01-28T14:01:11.607Z,4128
2017-01-28T14:02:33.679Z,4104
2017-01-28T14:03:55.748Z,4032
2017-01-28T14:05:18.571Z,3964
2017-01-28T14:06:41.458Z,3944
2017-01-28T14:08:02.334Z,3920
2017-01-28T14:09:24.417Z,4016
2017-01-28T14:10:46.401Z,4040
2017-01-28T14:12:08.679Z,4060
2017-01-28T14:13:31.562Z,4076
2017-01-28T14:14:54.090Z,4068
2017-01-28T14:16:16.867Z,4016
2017-01-28T14:17:39.020Z,3948
2017-01-28T14:19:01.508Z,3888
2017-01-28T14:20:24.080Z,3824
2017-01-28T14:21:47.445Z,3812
2017-01-28T14:23:10.337Z,3796
2017-01-28T14:24:32.011Z,3768
2017-01-28T14:25:54.900Z,3752
2017-01-28T14:27:17.246Z,3732
2017-01-28T14:28:39.805Z,3708
2017-01-28T14:30:01.926Z,3672
2017-01-28T14:31:24.148Z,3640
2017-01-28T14:32:45.726Z,3616
2017-01-28T14:34:08.601Z,3608
2017-01-28T14:35:31.068Z,3596
2017-01-28T14:36:52.736Z,3616
2017-01-28T14:38:15.531Z,3596
2017-01-28T14:39:38.473Z,3520
2017-01-28T14:41:01.550Z,3492
2017-01-28T14:42:23.231Z,3428
2017-01-28T14:43:46.015Z,3460
2017-01-28T14:45:07.701Z,3452
2017-01-28T14:46:28.980Z,3456
2017-01-28T14:47:51.843Z,3484
2017-01-28T14:49:14.295Z,3468
2017-01-28T14:50:37.168Z,3460
2017-01-28T14:51:59.283Z,3404
2017-01-28T14:53:21.463Z,3308
2017-01-28T14:54:43.441Z,3220
2017-01-28T14:56:05.979Z,3160
2017-01-28T14:57:27.650Z,3124
2017-01-28T14:58:49.721Z,3068
2017-01-28T15:00:12.469Z,2956
2017-01-28T15:01:34.560Z,2820
2017-01-28T15:02:57.417Z,2672
2017-01-28T15:04:19.650Z,2552
2017-01-28T15:05:42.411Z,2456
2017-01-28T15:07:04.889Z,2364
2017-01-28T15:08:26.966Z,2300
2017-01-28T15:09:49.038Z,2272
2017-01-28T15:11:11.630Z,2244
2017-01-28T15:12:34.107Z,2204
2017-01-28T15:13:56.609Z,2176
2017-01-28T15:15:19.112Z,2140
2017-01-28T15:16:41.882Z,2080
2017-01-28T15:18:04.289Z,2056
2017-01-28T15:19:26.916Z,2040
2017-01-28T15:20:48.668Z,1996
2017-01-28T15:22:11.473Z,1980
2017-01-28T15:23:34.180Z,1948
2017-01-28T15:24:56.691Z,1900
2017-01-28T15:26:19.346Z,1828
2017-01-28T15:27:42.303Z,1740
2017-01-28T15:29:05.209Z,1648
2017-01-28T15:30:26.978Z,1576
2017-01-28T15:31:48.995Z,1508
2017-01-28T15:33:12.275Z,1428
2017-01-28T15:34:34.391Z,1352
2017-01-28T15:35:56.458Z,1288
2017-01-28T15:37:18.381Z,1236
2017-01-28T15:38:41.166Z,1184
2017-01-28T15:40:02.858Z,1116
2017-01-28T15:41:25.336Z,1052
2017-01-28T15:42:47.837Z,988
2017-01-28T15:44:11.142Z,916
2017-01-28T15:45:34.069Z,836
2017-01-28T15:46:56.993Z,760
2017-01-28T15:48:19.086Z,696
2017-01-28T15:49:41.439Z,640
2017-01-28T15:51:04.046Z,584
2017-01-28T15:52:26.635Z,544
2017-01-28T15:53:48.718Z,508
2017-01-28T15:55:11.543Z,468
2017-01-28T15:56:34.478Z,428
2017-01-28T15:57:57.675Z,388
2017-01-28T15:59:20.160Z,344
2017-01-28T16:00:43.106Z,300
2017-01-28T16:02:05.815Z,256
2017-01-28T16:03:28.795Z,220
2017-01-28T16:04:50.497Z,188
2017-01-28T16:06:12.971Z,164
2017-01-28T16:07:34.691Z,140
2017-01-28T16:08:57.205Z,124
2017-01-28T16:10:19.944Z,104
2017-01-28T16:11:42.781Z,88
2017-01-28T16:13:05.376Z,72
2017-01-28T16:14:27.976Z,60
2017-01-28T16:15:50.886Z,52
2017-01-28T16:17:12.073Z,44
2017-01-28T16:18:34.234Z,36
2017-01-28T16:19:56.849Z,28
2017-01-28T16:21:19.354Z,20
2017-01-28T16:22:41.739Z,20
2017-01-28T16:24:04.686Z,16
2017-01-28T16:25:27.188Z,12
2017-01-28T16:26:49.781Z,12
2017-01-28T16:28:12.120Z,8
2017-01-28T16:29:33.409Z,4
2017-01-28T16:30:55.470Z,4
2017-01-28T16:32:17.579Z,4
2017-01-28T16:33:40.386Z,4
2017-01-28T16:35:02.152Z,0
2017-01-28T16:36:23.834Z,4
2017-01-28T16:37:46.808Z,0
2017-01-28T16:39:09.175Z,0
2017-01-28T16:40:31.669Z,0
2017-01-28T16:41:54.171Z,0
2017-01-28T16:43:16.278Z,0
2017-01-28T16:44:38.650Z,0
2017-01-28T16:46:01.193Z,0
2017-01-28T16:47:24.081Z,0
2017-01-28T16:48:47.030Z,0
2017-01-28T16:50:09.422Z,0
2017-01-28T16:51:32.392Z,0
2017-01-28T16:52:54.481Z,0
2017-01-28T16:54:16.957Z,0
2017-01-28T16:55:40.279Z,0
2017-01-28T16:57:02.336Z,0
2017-01-28T16:58:25.406Z,0
2017-01-28T16:59:47.899Z,0
2017-01-28T17:01:11.046Z,0
2017-01-28T17:02:33.528Z,0
2017-01-28T17:03:56.302Z,0
2017-01-28T17:05:18.999Z,0
2017-01-28T17:06:42.546Z,0
2017-01-28T17:08:05.034Z,0
2017-01-28T17:09:25.910Z,0
2017-01-28T17:10:48.010Z,0
2017-01-28T17:12:11.159Z,0
2017-01-28T17:13:33.273Z,0
2017-01-28T17:14:56.158Z,0
2017-01-28T17:16:19.265Z,0
2017-01-28T17:17:42.128Z,0
2017-01-28T17:19:05.055Z,0
2017-01-28T17:20:27.554Z,0
2017-01-28T17:21:49.619Z,0
2017-01-28T17:23:12.106Z,0
2017-01-28T17:24:34.774Z,0
2017-01-28T17:25:57.832Z,0
2017-01-28T17:27:20.729Z,0
2017-01-28T17:28:43.545Z,0
2017-01-28T17:30:06.530Z,0
2017-01-28T17:31:28.743Z,0
2017-01-28T17:32:51.055Z,0
2017-01-28T17:34:13.847Z,0
2017-01-28T17:35:35.963Z,0
2017-01-28T17:36:57.679Z,0
2017-01-28T17:38:19.766Z,0
2017-01-28T17:39:42.518Z,0
2017-01-28T17:41:05.126Z,0
2017-01-28T17:42:27.235Z,0
2017-01-28T17:43:50.310Z,0
2017-01-28T17:45:13.428Z,0
2017-01-28T17:46:35.521Z,0
2017-01-28T17:47:57.809Z,0
2017-01-28T17:49:19.895Z,0
2017-01-28T17:50:42.299Z,0
2017-01-28T17:52:04.809Z,0
2017-01-28T17:53:27.765Z,0
2017-01-28T17:54:50.723Z,0
2017-01-28T17:56:12.711Z,0
2017-01-28T17:57:35.631Z,0
2017-01-28T17:58:58.111Z,0
2017-01-28T18:00:19.787Z,0
2017-01-28T18:01:42.580Z,0
2017-01-28T18:03:04.736Z,0
2017-01-28T18:04:27.613Z,0
2017-01-28T18:05:49.710Z,0
2017-01-28T18:07:12.527Z,0
2017-01-28T18:08:35.013Z,0
2017-01-28T18:09:57.236Z,0
2017-01-28T18:11:19.690Z,0
2017-01-28T18:12:42.314Z,0
2017-01-28T18:14:04.792Z,0
2017-01-28T18:15:26.887Z,0
2017-01-28T18:16:49.738Z,0
2017-01-28T18:18:12.719Z,0
2017-01-28T18:19:34.820Z,0
2017-01-28T18:20:57.409Z,0
2017-01-28T18:22:19.863Z,0
2017-01-28T18:23:42.500Z,0
2017-01-28T18:25:05.445Z,0
2017-01-28T18:26:28.391Z,0
2017-01-28T18:27:51.578Z,0
2017-01-28T18:29:14.081Z,0
2017-01-28T18:30:36.622Z,0
2017-01-28T18:31:59.528Z,0
2017-01-28T18:33:22.370Z,0
2017-01-28T18:34:44.618Z,0
2017-01-28T18:36:07.528Z,0
2017-01-28T18:37:30.054Z,0
2017-01-28T18:38:52.501Z,0
2017-01-28T18:40:14.992Z,0
2017-01-28T18:41:36.734Z,0
2017-01-28T18:42:59.238Z,0
2017-01-28T18:44:21.694Z,0
2017-01-28T18:45:44.217Z,0
2017-01-28T18:47:06.789Z,0
2017-01-28T18:48:29.289Z,0
2017-01-28T18:49:52.128Z,0
2017-01-28T18:51:14.634Z,0
2017-01-28T18:52:37.534Z,0
2017-01-28T18:54:00.074Z,0
2017-01-28T18:55:22.883Z,0
2017-01-28T18:56:45.881Z,0
2017-01-28T18:58:08.535Z,0
2017-01-28T18:59:31.032Z,0
2017-01-28T19:00:54.156Z,0
2017-01-28T19:02:16.271Z,0
2017-01-28T19:03:39.162Z,0
2017-01-28T19:05:01.662Z,0
2017-01-28T19:06:24.387Z,0
2017-01-28T19:07:46.922Z,0
2017-01-28T19:09:08.994Z,0
2017-01-28T19:10:31.947Z,0
2017-01-28T19:11:54.729Z,0
2017-01-28T19:13:17.218Z,0
2017-01-28T19:14:40.233Z,0
2017-01-28T19:16:02.958Z,0
2017-01-28T19:17:25.362Z,0
2017-01-28T19:18:48.254Z,0